Terminal Aerodrome Forecast
Issued by NWS

Home | Current Version | Previous Version | Text Only | Print | Product List | Glossary Off
Versions: 1 2 3 4 5 6 7 8 9 10 11 12 13 14 15 16 17 18 19 20 21 22 23

867
FTUS43 KABR 232003 AAD
TAFPIR
TAF AMD
KPIR 232003Z 2320/2418 12019KT P6SM SCT020 SCT140
     FM240300 13018G25KT P6SM SCT250 WS020/16045KT=

USA.gov is the U.S. government's official web portal to all federal, state and local government web resources and services.